createdAt,value
2022-10-17T00:01:58.210Z,6.31
2022-10-17T00:07:04.414Z,6.54
2022-10-17T00:12:10.513Z,6.96
2022-10-17T00:17:16.825Z,6.40
2022-10-17T00:22:23.009Z,6.29
2022-10-17T00:27:29.572Z,6.34
2022-10-17T00:32:34.739Z,6.71
2022-10-17T00:37:41.013Z,6.42
2022-10-17T00:42:47.148Z,6.48
2022-10-17T00:47:53.456Z,6.37
2022-10-17T00:52:59.503Z,6.26
2022-10-17T00:58:05.717Z,6.18
2022-10-17T01:03:45.050Z,6.13
2022-10-17T01:08:51.667Z,5.81
2022-10-17T01:13:58.064Z,5.74
2022-10-17T01:19:04.539Z,6.25
2022-10-17T01:24:10.664Z,6.39
2022-10-17T01:29:16.969Z,5.97
2022-10-17T01:34:23.087Z,6.22
2022-10-17T01:39:30.170Z,6.40
2022-10-17T01:44:34.968Z,6.25
2022-10-17T01:49:41.133Z,6.67
2022-10-17T01:54:47.248Z,6.30
2022-10-17T01:59:53.403Z,6.46
2022-10-17T02:04:59.516Z,6.80
2022-10-17T02:10:05.726Z,6.31
2022-10-17T02:15:11.900Z,6.22
2022-10-17T02:20:18.098Z,6.30
2022-10-17T02:25:24.509Z,6.10
2022-10-17T02:30:30.778Z,5.87
2022-10-17T02:35:36.903Z,5.87
2022-10-17T02:40:43.068Z,6.23
2022-10-17T02:45:49.131Z,6.09
2022-10-17T02:50:55.310Z,5.74
2022-10-17T02:56:01.449Z,5.87
2022-10-17T03:01:08.112Z,5.85
2022-10-17T03:06:14.222Z,5.84
2022-10-17T03:11:20.498Z,5.43
2022-10-17T03:16:26.669Z,5.74
2022-10-17T03:21:33.017Z,6.10
2022-10-17T03:26:39.114Z,5.65
2022-10-17T03:31:45.619Z,5.60
2022-10-17T03:36:51.700Z,5.55
2022-10-17T03:41:58.028Z,5.20
2022-10-17T03:47:04.148Z,5.70
2022-10-17T03:52:10.344Z,5.47
2022-10-17T03:57:16.558Z,5.38
2022-10-17T04:02:22.741Z,5.69
2022-10-17T04:07:28.804Z,5.85
2022-10-17T04:12:35.190Z,5.84
2022-10-17T04:17:41.368Z,5.71
2022-10-17T04:22:47.669Z,6.31
2022-10-17T04:27:53.830Z,6.37
2022-10-17T04:32:59.999Z,6.31
2022-10-17T04:38:06.561Z,6.70
2022-10-17T04:43:12.938Z,6.35
2022-10-17T04:48:19.880Z,6.89
2022-10-17T04:53:26.848Z,6.79
2022-10-17T04:58:32.929Z,6.65
2022-10-17T05:03:39.196Z,6.75
2022-10-17T05:08:45.342Z,7.26
2022-10-17T05:13:51.516Z,7.33
2022-10-17T05:18:57.565Z,7.05
2022-10-17T05:24:03.854Z,7.75
2022-10-17T05:29:10.449Z,7.46
2022-10-17T05:34:16.574Z,7.94
2022-10-17T05:39:22.720Z,7.90
2022-10-17T05:44:29.706Z,7.67
2022-10-17T05:49:45.189Z,8.88
2022-10-17T05:54:41.516Z,8.69
2022-10-17T05:59:47.573Z,9.02
2022-10-17T06:04:53.715Z,9.24
2022-10-17T06:09:59.813Z,9.23
2022-10-17T06:15:06.132Z,9.09
2022-10-17T06:20:12.621Z,9.03
2022-10-17T06:25:18.778Z,9.33
2022-10-17T06:30:25.043Z,9.53
2022-10-17T06:35:31.284Z,9.13
2022-10-17T06:40:38.444Z,9.92
2022-10-17T06:45:44.663Z,9.12
2022-10-17T06:50:50.788Z,8.99
2022-10-17T06:55:57.047Z,8.44
2022-10-17T07:01:03.328Z,8.99
2022-10-17T07:06:09.752Z,8.58
2022-10-17T07:11:15.816Z,8.21
2022-10-17T07:16:22.063Z,8.82
2022-10-17T07:21:28.219Z,8.16
2022-10-17T07:26:34.626Z,8.80
2022-10-17T07:31:41.080Z,8.41
2022-10-17T07:36:47.333Z,8.79
2022-10-17T07:41:53.614Z,8.54
2022-10-17T07:46:59.732Z,8.25
2022-10-17T07:52:07.380Z,8.57
2022-10-17T07:57:13.946Z,8.27
2022-10-17T08:02:20.025Z,8.04
2022-10-17T08:07:29.267Z,7.87
2022-10-17T08:12:32.074Z,7.72
2022-10-17T08:17:37.728Z,8.06
2022-10-17T08:22:44.576Z,7.69
2022-10-17T08:27:50.875Z,7.70
2022-10-17T08:32:57.381Z,7.43
2022-10-17T08:38:03.774Z,6.70
2022-10-17T08:43:09.891Z,6.85
2022-10-17T08:48:16.123Z,6.66
2022-10-17T08:53:22.196Z,6.57
2022-10-17T08:58:28.473Z,6.65
2022-10-17T09:03:34.550Z,6.02
2022-10-17T09:08:40.738Z,6.11
2022-10-17T09:13:46.834Z,6.02
2022-10-17T09:18:53.262Z,5.96
2022-10-17T09:24:09.046Z,6.24
2022-10-17T09:29:05.283Z,5.40
2022-10-17T09:34:11.675Z,5.71
2022-10-17T09:39:17.927Z,5.66
2022-10-17T09:44:24.037Z,6.00
2022-10-17T09:49:30.275Z,6.24
2022-10-17T09:54:36.426Z,6.01
2022-10-17T09:59:42.699Z,6.49
2022-10-17T10:05:03.777Z,5.97
2022-10-17T10:09:55.014Z,5.81
2022-10-17T10:15:01.147Z,5.87
2022-10-17T10:20:07.360Z,5.90
2022-10-17T10:25:13.400Z,6.14
2022-10-17T10:30:19.655Z,5.87
2022-10-17T10:35:25.728Z,5.69
2022-10-17T10:40:31.863Z,5.84
2022-10-17T10:45:48.770Z,6.62
2022-10-17T10:50:45.413Z,6.02
2022-10-17T10:55:49.298Z,6.35
2022-10-17T11:00:55.473Z,5.88
2022-10-17T11:06:01.555Z,6.02
2022-10-17T11:11:07.844Z,6.35
2022-10-17T11:16:13.906Z,8.31
2022-10-17T11:21:20.202Z,9.04
2022-10-17T11:26:26.585Z,9.81
2022-10-17T11:31:32.804Z,9.67
2022-10-17T11:36:38.919Z,9.82
2022-10-17T11:41:45.114Z,10.63
2022-10-17T11:46:51.218Z,10.94
2022-10-17T11:52:00.782Z,10.79
2022-10-17T11:57:03.389Z,10.95
2022-10-17T12:02:09.468Z,12.35
2022-10-17T12:07:15.586Z,11.27
2022-10-17T12:12:21.907Z,11.62
2022-10-17T12:17:29.151Z,10.77
2022-10-17T12:22:35.314Z,11.60
2022-10-17T12:27:41.373Z,11.01
2022-10-17T12:33:04.315Z,11.37
2022-10-17T12:37:56.225Z,10.77
2022-10-17T12:42:58.819Z,11.81
2022-10-17T12:48:04.899Z,11.64
2022-10-17T12:53:14.349Z,11.87
2022-10-17T12:58:16.611Z,11.76
2022-10-17T13:03:22.811Z,10.94
2022-10-17T13:08:28.893Z,10.49
2022-10-17T13:13:35.202Z,9.60
2022-10-17T13:18:41.293Z,9.67
2022-10-17T13:23:47.467Z,8.82
2022-10-17T13:28:53.705Z,8.46
2022-10-17T13:33:59.737Z,7.77
2022-10-17T13:39:06.920Z,7.47
2022-10-17T13:44:11.488Z,7.37
2022-10-17T13:49:17.574Z,7.56
2022-10-17T13:54:23.882Z,7.46
2022-10-17T13:59:29.947Z,6.87
2022-10-17T14:04:57.799Z,7.10
2022-10-17T14:09:41.842Z,6.72
2022-10-17T14:15:09.371Z,6.25
2022-10-17T14:20:06.505Z,5.56
2022-10-17T14:25:02.486Z,5.45
2022-10-17T14:30:04.970Z,5.97
2022-10-17T14:35:37.126Z,5.63
2022-10-17T14:40:16.796Z,5.38
2022-10-17T14:45:23.796Z,5.42
2022-10-17T14:50:28.514Z,5.62
2022-10-17T14:55:34.689Z,5.52
2022-10-17T15:00:40.815Z,5.14
2022-10-17T15:05:46.966Z,4.98
2022-10-17T15:10:53.033Z,4.94
2022-10-17T15:15:59.186Z,5.49
2022-10-17T15:21:17.665Z,5.84
2022-10-17T15:26:11.086Z,6.04
2022-10-17T15:31:17.197Z,5.94
2022-10-17T15:36:23.394Z,6.59
2022-10-17T15:41:29.439Z,7.06
2022-10-17T15:46:36.075Z,7.93
2022-10-17T15:51:42.162Z,7.89
2022-10-17T15:56:48.383Z,8.42
2022-10-17T16:01:54.464Z,8.46
2022-10-17T16:07:00.646Z,8.73
2022-10-17T16:12:06.786Z,9.10
2022-10-17T16:17:13.013Z,9.18
2022-10-17T16:22:19.248Z,7.57
2022-10-17T16:27:25.469Z,5.62
2022-10-17T16:32:31.878Z,4.98
2022-10-17T16:37:37.578Z,4.00
2022-10-17T16:42:43.644Z,3.17
2022-10-17T16:47:49.805Z,2.91
2022-10-17T16:52:55.979Z,3.21
2022-10-17T16:58:02.193Z,3.10
2022-10-17T17:03:08.270Z,3.22
2022-10-17T17:08:14.506Z,3.92
2022-10-17T17:13:20.651Z,3.45
2022-10-17T17:18:26.883Z,3.32
2022-10-17T17:23:32.981Z,3.15
2022-10-17T17:28:39.181Z,3.30
2022-10-17T17:33:45.301Z,3.61
2022-10-17T17:38:51.490Z,3.09
2022-10-17T17:43:57.644Z,3.32
2022-10-17T17:49:04.039Z,3.26
2022-10-17T17:54:10.091Z,3.59
2022-10-17T17:59:16.352Z,3.94
2022-10-17T18:04:22.468Z,4.34
2022-10-17T18:09:28.524Z,4.56
2022-10-17T18:14:34.602Z,4.29
2022-10-17T18:19:40.900Z,4.48
2022-10-17T18:24:46.984Z,5.00
2022-10-17T18:29:53.125Z,5.16
2022-10-17T18:34:59.215Z,5.41
2022-10-17T18:40:05.551Z,5.06
2022-10-17T18:45:11.967Z,4.69
2022-10-17T18:50:18.500Z,4.59
2022-10-17T18:55:24.578Z,4.23
2022-10-17T19:00:31.177Z,3.91
2022-10-17T19:05:37.293Z,3.44
2022-10-17T19:10:43.524Z,3.43
2022-10-17T19:15:49.574Z,3.77
2022-10-17T19:20:55.780Z,3.31
2022-10-17T19:26:01.847Z,3.58
2022-10-17T19:31:08.362Z,3.49
2022-10-17T19:36:14.421Z,3.79
2022-10-17T19:41:20.578Z,3.62
2022-10-17T19:46:26.708Z,3.44
2022-10-17T19:51:32.928Z,3.81
2022-10-17T19:56:39.391Z,4.01
2022-10-17T20:01:45.694Z,4.33
2022-10-17T20:06:51.841Z,4.02
2022-10-17T20:11:57.982Z,4.14
2022-10-17T20:17:04.057Z,4.14
2022-10-17T20:22:10.221Z,4.30
2022-10-17T20:27:16.301Z,4.11
2022-10-17T20:32:22.444Z,4.75
2022-10-17T20:37:28.771Z,4.84
2022-10-17T20:42:34.611Z,5.49
2022-10-17T20:47:46.955Z,6.18
2022-10-17T20:52:46.441Z,6.73
2022-10-17T20:57:52.524Z,6.66
2022-10-17T21:02:58.679Z,6.77
2022-10-17T21:08:04.769Z,6.89
2022-10-17T21:13:10.904Z,6.96
2022-10-17T21:18:17.070Z,7.15
2022-10-17T21:23:23.239Z,7.66
2022-10-17T21:28:29.397Z,7.88
2022-10-17T21:33:35.538Z,8.26
2022-10-17T21:38:41.604Z,8.91
2022-10-17T21:43:47.867Z,9.27
2022-10-17T21:48:53.922Z,9.75
2022-10-17T21:54:00.174Z,10.25
2022-10-17T21:59:06.538Z,10.35
2022-10-17T22:04:12.696Z,10.57
2022-10-17T22:09:19.091Z,10.21
2022-10-17T22:14:25.269Z,10.78
2022-10-17T22:19:31.360Z,10.94
2022-10-17T22:24:37.613Z,11.73
2022-10-17T22:29:44.474Z,11.89
2022-10-17T22:34:50.773Z,12.85
2022-10-17T22:39:57.021Z,13.15
2022-10-17T22:45:03.383Z,13.05
2022-10-17T22:50:09.476Z,12.73
2022-10-17T22:55:15.953Z,15.06
2022-10-17T23:00:22.420Z,15.39
2022-10-17T23:05:28.580Z,14.56
2022-10-17T23:10:35.048Z,14.97
2022-10-17T23:15:41.198Z,15.47
2022-10-17T23:20:47.269Z,16.66
2022-10-17T23:25:53.555Z,16.15
2022-10-17T23:30:59.654Z,17.55
2022-10-17T23:36:05.975Z,17.83
2022-10-17T23:41:12.403Z,18.88
2022-10-17T23:46:18.724Z,18.56
2022-10-17T23:51:24.805Z,19.53
2022-10-17T23:56:31.824Z,19.15
